Terminal Aerodrome Forecast
Issued by NWS Jackson, KY

Home | Current Version | Previous Version | Text Only | Print | Product List | Glossary On
Versions: 1 2 3 4 5 6 7 8 9 10 11 12 13 14 15 16 17 18 19 20 21
000
FTUS43 KJKL 220533
TAFJKL
TAF
KJKL 220533Z 2206/2306 00000KT P6SM -SHRA BKN030
     FM220700 00000KT P6SM VCSH BKN040
     FM220800 00000KT P6SM BKN040
     FM221200 VRB03KT P6SM SCT130=

USA.gov is the U.S. government's official web portal to all federal, state and local government web resources and services.